Time;durP1;ratioP1;P1;durP2;ratioP2;P2;SDS_P1;SDS_P2;PMS_P1;PMS_P2;Temp;Humidity;BMP_temperature;BMP_pressure;BME280_temperature;BME280_humidity;BME280_pressure;Samples;Min_cycle;Max_cycle;Signal;HPM_P1;HPM_P2
2022/07/07 00:01:29;;;;;;;4.90;3.27;;;16.00;99.90;17.30;97252.00;;;;5055412;28;20726;-67
2022/07/07 00:04:18;;;;;;;3.43;3.13;;;16.00;99.90;17.20;97244.00;;;;5048465;28;20224;-65
2022/07/07 00:07:07;;;;;;;3.37;3.17;;;16.00;99.90;17.20;97238.00;;;;5050288;28;20664;-66
2022/07/07 00:09:56;;;;;;;5.10;3.30;;;16.00;99.90;17.50;97237.00;;;;5050404;28;20904;-65
2022/07/07 00:12:45;;;;;;;3.03;2.83;;;16.00;99.90;17.70;97238.00;;;;5052536;28;20678;-67
2022/07/07 00:15:34;;;;;;;3.10;2.90;;;16.00;99.90;17.60;97236.00;;;;5054573;28;20216;-67
2022/07/07 00:18:24;;;;;;;3.37;3.07;;;16.10;99.90;17.70;97229.00;;;;5054155;28;20242;-67
2022/07/07 00:21:13;;;;;;;4.63;3.10;;;16.10;99.90;17.10;97224.00;;;;5053467;28;20192;-65
2022/07/07 00:24:02;;;;;;;3.63;3.33;;;16.10;99.90;16.80;97225.00;;;;5063285;28;20236;-66
2022/07/07 00:26:50;;;;;;;3.70;3.40;;;16.00;99.90;16.70;97235.00;;;;5052145;28;20195;-66
2022/07/07 00:29:39;;;;;;;3.90;3.50;;;15.80;99.90;16.30;97236.00;;;;5060596;28;20652;-66
2022/07/07 00:32:28;;;;;;;3.53;3.23;;;15.70;99.90;16.10;97223.00;;;;5052933;28;20201;-66
2022/07/07 00:35:18;;;;;;;3.37;3.10;;;15.50;99.90;16.30;97229.00;;;;5063210;28;20234;-66
2022/07/07 00:38:07;;;;;;;3.73;3.43;;;15.40;99.90;16.70;97213.00;;;;5057421;28;20715;-66
2022/07/07 00:40:56;;;;;;;3.97;3.53;;;15.30;99.90;16.70;97215.00;;;;5052548;28;20212;-66
2022/07/07 00:43:45;;;;;;;3.67;3.37;;;15.30;99.90;17.00;97209.00;;;;5052383;28;20204;-66
2022/07/07 00:46:45;;;;;;;3.90;3.47;;;15.40;99.90;17.10;97213.00;;;;5063340;28;20204;-66
2022/07/07 00:49:38;;;;;;;3.70;3.37;;;15.50;99.90;16.80;97203.00;;;;5062251;28;20204;-66
2022/07/07 00:52:28;;;;;;;4.10;3.70;;;15.50;99.90;16.50;97200.00;;;;5053527;28;20209;-66
2022/07/07 00:55:17;;;;;;;3.83;3.53;;;15.50;99.90;16.50;97212.00;;;;5053696;28;20221;-66
2022/07/07 00:58:06;;;;;;;3.60;3.30;;;15.40;99.90;16.50;97213.00;;;;5055686;28;20235;-66
2022/07/07 01:00:55;;;;;;;4.53;3.07;;;15.40;99.90;16.50;97212.00;;;;5056707;28;20655;-66
2022/07/07 01:03:43;;;;;;;4.53;3.47;;;15.30;99.90;16.50;97210.00;;;;5063669;28;20200;-65
2022/07/07 01:06:33;;;;;;;4.20;3.77;;;15.30;99.90;16.20;97212.00;;;;5059588;28;20201;-66
2022/07/07 01:09:24;;;;;;;7.63;3.73;;;15.20;99.90;16.00;97207.00;;;;5051818;28;20208;-67
2022/07/07 01:12:12;;;;;;;4.73;3.40;;;15.20;99.90;16.10;97211.00;;;;5052110;28;20212;-65
2022/07/07 01:15:01;;;;;;;3.77;3.47;;;15.10;99.90;16.10;97210.00;;;;5064645;28;20212;-66
2022/07/07 01:17:50;;;;;;;6.27;3.77;;;15.00;99.90;16.20;97211.00;;;;5058997;28;20683;-65
2022/07/07 01:20:47;;;;;;;3.47;3.27;;;15.00;99.90;16.10;97204.00;;;;5066403;28;20223;-66
2022/07/07 01:23:37;;;;;;;4.27;3.97;;;15.00;99.90;16.40;97201.00;;;;5054095;28;20200;-65
2022/07/07 01:26:27;;;;;;;4.23;3.93;;;15.00;99.90;16.20;97204.00;;;;5054486;28;20204;-65
2022/07/07 01:29:16;;;;;;;3.13;2.93;;;15.00;99.90;16.10;97198.00;;;;5052866;28;20707;-65
2022/07/07 01:32:07;;;;;;;4.97;4.57;;;15.00;99.90;15.80;97207.00;;;;5051532;28;20683;-65
2022/07/07 01:34:56;;;;;;;6.03;4.10;;;14.90;99.90;15.20;97198.00;;;;5052107;28;20240;-66
2022/07/07 01:37:45;;;;;;;5.00;3.27;;;14.70;99.90;15.60;97188.00;;;;5059241;28;20200;-65
2022/07/07 01:40:37;;;;;;;9.13;4.33;;;14.60;99.90;15.70;97190.00;;;;5051644;28;20205;-66
2022/07/07 01:43:26;;;;;;;5.13;4.27;;;14.60;99.90;16.10;97188.00;;;;5052751;28;20216;-66
2022/07/07 01:46:15;;;;;;;4.37;4.00;;;14.60;99.90;16.00;97183.00;;;;5057725;28;20199;-65
2022/07/07 01:49:04;;;;;;;4.23;3.57;;;14.70;99.90;16.20;97180.00;;;;5052027;28;20199;-66
2022/07/07 01:51:52;;;;;;;7.30;4.50;;;14.70;99.90;16.10;97184.00;;;;5051987;28;20216;-66
2022/07/07 01:54:41;;;;;;;4.10;3.80;;;14.80;99.90;15.60;97184.00;;;;5052162;28;20229;-67
2022/07/07 01:57:32;;;;;;;4.10;3.60;;;14.70;99.90;15.40;97184.00;;;;5049887;28;20231;-65
2022/07/07 02:00:20;;;;;;;5.03;3.43;;;14.60;99.90;15.50;97178.00;;;;5058565;28;20203;-65
2022/07/07 02:03:09;;;;;;;4.00;3.60;;;14.50;99.90;15.90;97174.00;;;;5058119;28;20201;-65
2022/07/07 02:05:58;;;;;;;3.13;2.93;;;14.50;99.90;16.10;97177.00;;;;5051553;28;20207;-65
2022/07/07 02:08:47;;;;;;;4.00;3.70;;;14.60;99.90;16.30;97177.00;;;;5051037;28;20205;-65
2022/07/07 02:11:36;;;;;;;5.00;4.37;;;14.70;99.90;16.30;97174.00;;;;5052213;28;20192;-65
2022/07/07 02:14:26;;;;;;;4.37;3.97;;;14.70;99.90;16.00;97164.00;;;;5054189;28;20940;-66
2022/07/07 02:17:15;;;;;;;4.33;3.97;;;14.80;99.90;15.40;97170.00;;;;5051944;28;20220;-66
2022/07/07 02:20:05;;;;;;;3.80;3.50;;;14.70;99.90;15.70;97178.00;;;;5061392;28;20224;-65
2022/07/07 02:22:54;;;;;;;4.97;4.13;;;14.60;99.90;15.90;97182.00;;;;5050353;28;20215;-65
2022/07/07 02:25:43;;;;;;;4.13;3.27;;;14.60;99.90;15.90;97183.00;;;;5050823;28;20228;-65
2022/07/07 02:28:32;;;;;;;12.03;4.67;;;14.60;99.90;15.60;97193.00;;;;5053721;28;20207;-66
2022/07/07 02:31:23;;;;;;;4.50;4.07;;;14.50;99.90;15.80;97187.00;;;;5055244;28;20192;-65
2022/07/07 02:34:11;;;;;;;6.20;4.20;;;14.50;99.90;15.90;97194.00;;;;5050487;28;20223;-66
2022/07/07 02:37:00;;;;;;;3.80;3.50;;;14.50;99.90;16.00;97183.00;;;;5059419;28;20258;-66
2022/07/07 02:39:49;;;;;;;4.20;3.80;;;14.60;99.90;16.00;97183.00;;;;5050818;28;20243;-65
2022/07/07 02:42:38;;;;;;;3.40;3.20;;;14.60;99.90;15.90;97182.00;;;;5044476;28;20200;-65
2022/07/07 02:45:27;;;;;;;4.47;4.07;;;14.60;99.90;15.60;97197.00;;;;5058104;28;20273;-66
2022/07/07 02:48:19;;;;;;;4.50;4.10;;;14.60;99.90;15.40;97184.00;;;;5060650;28;20203;-65
2022/07/07 02:51:08;;;;;;;5.83;4.10;;;14.50;99.90;15.30;97186.00;;;;5052924;28;20204;-66
2022/07/07 02:53:57;;;;;;;3.70;3.37;;;13.60;99.90;15.10;97193.00;;;;5052436;28;20242;-66
2022/07/07 02:56:46;;;;;;;4.57;3.63;;;14.30;99.90;14.70;97194.00;;;;5045218;28;20192;-65
2022/07/07 02:59:36;;;;;;;6.73;3.97;;;14.10;99.90;15.00;97194.00;;;;5057258;28;20227;-66
2022/07/07 03:02:25;;;;;;;4.27;3.97;;;14.10;99.90;15.30;97186.00;;;;5053217;28;20203;-66
2022/07/07 03:05:15;;;;;;;4.70;4.30;;;14.10;99.90;15.30;97189.00;;;;5059994;28;20234;-66
2022/07/07 03:08:04;;;;;;;5.17;4.63;;;14.10;99.90;15.40;97180.00;;;;5057275;28;20679;-65
2022/07/07 03:10:53;;;;;;;6.00;4.40;;;14.10;99.90;15.40;97183.00;;;;5060116;28;20204;-66
2022/07/07 03:13:42;;;;;;;5.33;4.57;;;14.10;99.90;15.50;97183.00;;;;5055613;28;20572;-66
2022/07/07 03:16:31;;;;;;;4.73;4.33;;;14.10;99.90;15.50;97172.00;;;;5055014;28;20278;-65
2022/07/07 03:19:20;;;;;;;4.10;3.80;;;14.20;99.90;14.90;97179.00;;;;5059058;28;20814;-67
2022/07/07 03:22:10;;;;;;;4.47;4.17;;;14.10;99.90;15.10;97170.00;;;;5054086;28;20691;-65
2022/07/07 03:24:59;;;;;;;5.00;4.60;;;14.10;99.90;14.80;97177.00;;;;5050046;28;20269;-65
2022/07/07 03:27:48;;;;;;;5.27;4.77;;;14.00;99.90;15.10;97161.00;;;;5054445;28;20270;-67
2022/07/07 03:30:37;;;;;;;5.17;4.17;;;14.00;99.90;15.40;97166.00;;;;5049737;28;20680;-66
2022/07/07 03:33:25;;;;;;;4.80;4.43;;;14.10;99.90;15.50;97164.00;;;;5060499;28;20204;-66
2022/07/07 03:36:16;;;;;;;4.50;4.17;;;14.10;99.90;15.50;97167.00;;;;5063220;28;20261;-66
2022/07/07 03:39:07;;;;;;;4.60;4.20;;;14.20;99.90;15.80;97168.00;;;;5062443;28;20760;-65
2022/07/07 03:41:55;;;;;;;4.40;3.97;;;14.30;99.90;15.50;97170.00;;;;5053250;28;20621;-66
2022/07/07 03:44:45;;;;;;;4.97;4.47;;;14.30;99.90;15.30;97169.00;;;;5050492;28;20224;-66
2022/07/07 03:47:34;;;;;;;5.60;4.87;;;14.30;99.90;15.40;97169.00;;;;5063217;28;20208;-66
2022/07/07 03:50:23;;;;;;;8.57;4.43;;;14.30;99.90;15.40;97173.00;;;;5059154;28;20293;-65
2022/07/07 03:53:12;;;;;;;5.00;4.40;;;14.30;99.90;15.70;97180.00;;;;5050242;28;20232;-65
2022/07/07 03:56:02;;;;;;;4.73;4.27;;;14.30;99.90;15.70;97178.00;;;;5050181;28;20305;-65
2022/07/07 03:58:51;;;;;;;4.50;4.20;;;14.30;99.90;15.70;97167.00;;;;5055199;28;20251;-66
2022/07/07 04:01:44;;;;;;;4.50;4.10;;;14.40;99.90;15.80;97157.00;;;;5056213;28;20584;-65
2022/07/07 04:04:33;;;;;;;4.50;4.13;;;14.40;99.90;15.80;97154.00;;;;5053611;28;20228;-66
2022/07/07 04:07:22;;;;;;;4.53;4.23;;;14.50;99.90;15.70;97163.00;;;;5048531;28;20594;-66
2022/07/07 04:10:11;;;;;;;4.43;3.87;;;14.50;99.90;16.10;97153.00;;;;5048057;28;20200;-66
2022/07/07 04:13:01;;;;;;;4.13;3.83;;;14.50;99.90;16.10;97150.00;;;;5065186;28;20285;-67
2022/07/07 04:15:50;;;;;;;5.17;4.67;;;14.70;99.90;15.90;97150.00;;;;5062386;28;20255;-66
2022/07/07 04:18:39;;;;;;;4.93;4.50;;;14.70;99.90;15.60;97143.00;;;;5052330;28;20207;-66
2022/07/07 04:21:28;;;;;;;4.53;4.23;;;14.60;99.90;15.80;97149.00;;;;5060266;28;20263;-65
2022/07/07 04:24:17;;;;;;;5.30;4.80;;;14.60;99.90;16.00;97151.00;;;;5059415;28;20228;-65
2022/07/07 04:27:08;;;;;;;5.47;4.73;;;14.70;99.90;16.00;97158.00;;;;5047904;28;20287;-66
2022/07/07 04:29:59;;;;;;;5.13;4.63;;;14.70;99.90;15.70;97150.00;;;;5051693;28;20273;-66
2022/07/07 04:32:47;;;;;;;3.70;3.40;;;14.70;99.90;15.70;97160.00;;;;5062389;28;20253;-66
2022/07/07 04:35:36;;;;;;;5.70;3.93;;;14.70;99.90;15.70;97151.00;;;;5049800;28;20257;-67
2022/07/07 04:38:25;;;;;;;6.47;4.17;;;14.70;99.90;16.20;97166.00;;;;5054288;28;20216;-66
2022/07/07 04:41:14;;;;;;;4.57;4.13;;;14.70;99.90;16.40;97160.00;;;;5056935;28;20227;-67
2022/07/07 04:44:05;;;;;;;7.23;4.57;;;14.80;99.90;16.30;97165.00;;;;5053620;28;20275;-66
2022/07/07 04:46:55;;;;;;;4.77;4.03;;;15.00;99.90;16.40;97158.00;;;;5061971;28;20223;-66
2022/07/07 04:49:44;;;;;;;4.10;3.80;;;15.00;99.90;16.40;97152.00;;;;5045939;28;20221;-66
2022/07/07 04:52:33;;;;;;;5.90;4.20;;;15.10;99.90;16.40;97157.00;;;;5060162;28;20201;-66
2022/07/07 04:55:22;;;;;;;4.07;3.77;;;15.10;99.90;16.60;97153.00;;;;5058379;28;20265;-66
2022/07/07 04:58:10;;;;;;;4.17;3.73;;;15.20;99.90;16.70;97153.00;;;;5061477;28;20215;-66
2022/07/07 05:00:59;;;;;;;4.20;3.77;;;15.30;99.90;16.10;97159.00;;;;5059379;28;20235;-67
2022/07/07 05:03:50;;;;;;;4.67;4.27;;;15.30;99.90;16.40;97156.00;;;;5057236;28;20208;-66
2022/07/07 05:06:39;;;;;;;6.63;4.17;;;15.30;99.90;16.60;97158.00;;;;5056578;28;20211;-66
2022/07/07 05:09:28;;;;;;;4.20;3.90;;;15.30;99.90;16.70;97155.00;;;;5065328;28;20208;-66
2022/07/07 05:12:16;;;;;;;4.83;4.43;;;15.40;99.90;16.70;97154.00;;;;5066296;28;20209;-66
2022/07/07 05:15:07;;;;;;;5.20;4.80;;;15.40;99.90;16.90;97155.00;;;;5083252;28;20219;-66
2022/07/07 05:17:56;;;;;;;4.40;4.07;;;15.50;99.90;17.30;97153.00;;;;5068641;28;20197;-66
2022/07/07 05:20:48;;;;;;;5.13;4.17;;;15.60;99.90;17.40;97154.00;;;;5061151;28;20352;-66
2022/07/07 05:23:36;;;;;;;4.53;4.00;;;15.70;99.90;17.40;97160.00;;;;5061949;28;20196;-65
2022/07/07 05:26:25;;;;;;;5.20;4.70;;;15.90;99.90;17.30;97147.00;;;;5062157;28;20215;-66
2022/07/07 05:29:14;;;;;;;8.30;5.40;;;16.00;99.90;17.30;97162.00;;;;5061077;28;20205;-66
2022/07/07 05:32:03;;;;;;;13.47;5.57;;;16.00;99.90;17.40;97156.00;;;;5062271;28;20591;-66
2022/07/07 05:34:52;;;;;;;10.17;5.60;;;16.10;99.90;17.60;97156.00;;;;5069364;28;20227;-66
2022/07/07 05:37:42;;;;;;;8.53;5.23;;;16.20;99.90;17.40;97159.00;;;;5071179;28;20215;-66
2022/07/07 05:40:31;;;;;;;5.07;4.67;;;16.20;99.90;17.60;97152.00;;;;5059422;28;20235;-66
2022/07/07 05:43:20;;;;;;;7.97;5.63;;;16.20;99.90;17.90;97143.00;;;;5072814;28;20200;-66
2022/07/07 05:46:09;;;;;;;10.70;6.00;;;16.30;99.90;18.20;97151.00;;;;5064566;28;20200;-66
2022/07/07 05:48:58;;;;;;;7.20;5.00;;;16.40;99.90;18.10;97150.00;;;;5062369;28;20204;-66
2022/07/07 05:51:47;;;;;;;5.57;4.70;;;16.60;99.90;18.20;97144.00;;;;5063989;28;20212;-66
2022/07/07 05:54:37;;;;;;;6.40;5.67;;;16.60;99.90;18.10;97149.00;;;;5057735;28;20213;-66
2022/07/07 05:57:26;;;;;;;7.17;5.50;;;16.60;99.90;17.70;97145.00;;;;5058350;28;20201;-68
2022/07/07 06:00:16;;;;;;;10.03;5.63;;;16.70;99.90;18.00;97143.00;;;;5067472;28;20231;-67
2022/07/07 06:03:05;;;;;;;8.00;4.93;;;16.70;99.90;18.10;97149.00;;;;5070749;28;20208;-67
2022/07/07 06:05:54;;;;;;;8.17;5.13;;;16.80;99.90;18.50;97151.00;;;;5052363;28;20216;-66
2022/07/07 06:08:42;;;;;;;7.83;4.93;;;16.90;99.90;18.60;97144.00;;;;5064314;28;20204;-66
2022/07/07 06:11:33;;;;;;;6.50;5.30;;;17.00;99.90;18.70;97132.00;;;;5060992;28;20672;-66
2022/07/07 06:14:22;;;;;;;12.23;5.83;;;17.10;99.90;18.90;97136.00;;;;5060043;28;20262;-66
2022/07/07 06:17:10;;;;;;;7.47;5.10;;;17.20;99.90;19.00;97117.00;;;;5062274;28;20679;-68
2022/07/07 06:19:59;;;;;;;6.63;5.20;;;17.40;99.90;19.60;97112.00;;;;5063800;28;20246;-67
2022/07/07 06:22:48;;;;;;;9.23;5.70;;;17.60;99.90;20.10;97119.00;;;;5058492;28;20208;-67
2022/07/07 06:25:37;;;;;;;8.37;6.33;;;17.80;99.90;20.00;97123.00;;;;5068470;28;20225;-66
2022/07/07 06:28:27;;;;;;;10.07;5.53;;;18.10;99.90;19.90;97110.00;;;;5059267;28;20710;-66
2022/07/07 06:31:16;;;;;;;9.37;5.57;;;18.30;99.90;20.30;97121.00;;;;5058469;28;20218;-66
2022/07/07 06:34:05;;;;;;;10.60;5.13;;;18.50;99.90;20.80;97128.00;;;;5064124;28;20220;-66
2022/07/07 06:36:54;;;;;;;11.53;5.30;;;18.70;99.90;20.90;97121.00;;;;5055188;28;20223;-66
2022/07/07 06:39:42;;;;;;;9.13;5.33;;;18.80;99.90;21.00;97115.00;;;;5061443;28;20215;-66
2022/07/07 06:42:31;;;;;;;9.93;4.93;;;19.00;99.90;21.40;97115.00;;;;5069410;28;20202;-66
2022/07/07 06:45:21;;;;;;;7.20;4.50;;;19.20;99.90;21.50;97109.00;;;;5054389;28;20232;-66
2022/07/07 06:48:10;;;;;;;6.37;5.03;;;19.40;99.90;21.60;97113.00;;;;5065487;28;20582;-66
2022/07/07 06:51:01;;;;;;;6.97;4.70;;;19.50;99.90;21.70;97102.00;;;;5069783;28;20204;-66
2022/07/07 06:53:50;;;;;;;8.40;5.10;;;19.70;99.90;22.00;97097.00;;;;5059580;28;20285;-65
2022/07/07 06:56:39;;;;;;;8.17;5.50;;;19.90;99.90;22.20;97104.00;;;;5062743;28;20226;-66
2022/07/07 06:59:28;;;;;;;8.87;4.90;;;20.10;99.90;22.50;97094.00;;;;5061667;28;20223;-66
2022/07/07 07:02:18;;;;;;;8.13;5.07;;;20.20;99.90;22.80;97091.00;;;;5060105;28;20306;-66
2022/07/07 07:05:08;;;;;;;6.40;4.53;;;20.40;99.90;22.80;97085.00;;;;5064091;28;20979;-66
2022/07/07 07:07:56;;;;;;;8.43;5.20;;;20.70;99.90;23.20;97082.00;;;;5065513;28;20203;-66
2022/07/07 07:10:45;;;;;;;7.00;4.23;;;20.90;99.90;23.60;97070.00;;;;5068687;28;20222;-66
2022/07/07 07:13:34;;;;;;;6.90;4.90;;;21.10;99.90;23.30;97069.00;;;;5066377;28;20210;-66
2022/07/07 07:16:23;;;;;;;7.80;5.13;;;21.30;99.90;23.10;97067.00;;;;5066189;28;20210;-67
2022/07/07 07:19:14;;;;;;;12.43;5.00;;;21.40;99.90;23.60;97065.00;;;;5068843;28;20196;-67
2022/07/07 07:22:03;;;;;;;6.37;4.30;;;21.50;99.90;23.60;97076.00;;;;5062418;28;20219;-65
2022/07/07 07:24:52;;;;;;;6.90;4.70;;;21.60;99.90;23.90;97074.00;;;;5059880;28;20228;-66
2022/07/07 07:27:41;;;;;;;5.77;4.03;;;21.80;99.90;23.70;97065.00;;;;5066448;28;20197;-69
2022/07/07 07:30:30;;;;;;;6.80;4.43;;;21.90;99.90;24.10;97066.00;;;;5065179;28;20227;-65
2022/07/07 07:33:19;;;;;;;9.00;4.50;;;22.00;99.90;24.30;97061.00;;;;5063103;28;20211;-65
2022/07/07 07:36:09;;;;;;;8.93;4.60;;;22.10;99.90;24.40;97063.00;;;;5062469;28;20672;-67
2022/07/07 07:38:58;;;;;;;8.97;4.87;;;22.30;99.90;24.30;97061.00;;;;5062180;28;20616;-67
2022/07/07 07:41:47;;;;;;;11.33;4.47;;;22.30;99.90;24.40;97061.00;;;;5062879;28;20228;-65
2022/07/07 07:47:46;;;;;;;7.30;4.07;;;22.50;99.90;25.00;97064.00;;;;5058245;28;20205;-66
2022/07/07 07:50:35;;;;;;;12.57;4.10;;;22.70;99.90;25.20;97056.00;;;;5055122;28;20227;-67
2022/07/07 07:53:25;;;;;;;10.23;3.93;;;22.90;99.90;25.60;97057.00;;;;5065294;28;20210;-66
2022/07/07 07:56:14;;;;;;;5.50;3.70;;;23.10;99.90;25.60;97061.00;;;;5065440;28;20246;-66
2022/07/07 07:59:03;;;;;;;3.63;3.33;;;23.30;99.90;25.50;97060.00;;;;5066669;28;20204;-66
2022/07/07 08:01:52;;;;;;;4.47;3.37;;;23.40;99.90;25.50;97042.00;;;;5068035;28;20229;-66
2022/07/07 08:04:41;;;;;;;6.87;3.70;;;23.50;99.90;26.20;97050.00;;;;5065678;28;20715;-66
2022/07/07 08:07:30;;;;;;;4.33;3.27;;;23.70;99.90;25.90;97039.00;;;;5063566;28;20201;-65
2022/07/07 08:10:20;;;;;;;2.77;2.53;;;23.80;99.90;25.80;97042.00;;;;5064229;28;20594;-66
2022/07/07 08:13:09;;;;;;;3.43;3.00;;;23.90;99.90;26.20;97043.00;;;;5055040;28;20781;-66
2022/07/07 08:15:57;;;;;;;6.10;2.80;;;24.00;99.90;25.90;97042.00;;;;5052775;28;20200;-66
2022/07/07 08:18:46;;;;;;;6.33;3.57;;;24.00;99.90;26.10;97045.00;;;;5058437;28;20203;-66
2022/07/07 08:21:35;;;;;;;4.67;3.37;;;24.00;99.90;26.30;97038.00;;;;5062314;28;20228;-66
2022/07/07 08:24:25;;;;;;;2.93;2.70;;;24.10;99.90;25.90;97039.00;;;;5063111;28;20717;-67
2022/07/07 08:27:15;;;;;;;3.27;2.80;;;24.10;99.90;27.00;97002.00;;;;5059973;28;20216;-67
2022/07/07 08:30:06;;;;;;;2.83;2.43;;;24.30;99.90;27.20;97023.00;;;;5059834;28;20211;-66
2022/07/07 08:32:55;;;;;;;3.67;3.10;;;24.70;99.90;27.10;97020.00;;;;5062501;28;20200;-66
2022/07/07 08:35:44;;;;;;;3.70;2.60;;;24.80;99.90;27.10;97012.00;;;;5068229;28;20238;-65
2022/07/07 08:38:32;;;;;;;5.20;2.67;;;24.90;99.80;27.80;96996.00;;;;5067751;28;20679;-66
2022/07/07 08:41:21;;;;;;;3.63;2.20;;;25.10;99.90;28.80;97006.00;;;;5064877;28;20587;-66
2022/07/07 08:44:12;;;;;;;2.10;2.00;;;25.60;99.90;28.50;97000.00;;;;5066108;28;20612;-65
2022/07/07 08:47:01;;;;;;;2.97;2.30;;;25.90;99.10;27.70;97001.00;;;;5064157;28;20600;-67
2022/07/07 08:49:50;;;;;;;4.00;2.37;;;26.00;95.70;27.90;97013.00;;;;5066145;28;20204;-65
2022/07/07 08:52:40;;;;;;;2.33;2.13;;;26.00;95.40;27.50;97007.00;;;;5061332;28;20199;-65
2022/07/07 08:55:32;;;;;;;2.20;2.07;;;25.80;93.70;27.40;97001.00;;;;5058689;28;20224;-66
2022/07/07 08:58:21;;;;;;;2.20;2.00;;;25.70;92.70;27.60;97007.00;;;;5062940;28;20218;-66
2022/07/07 09:01:21;;;;;;;2.30;2.07;;;25.60;93.60;27.40;97023.00;;;;5066198;28;20202;-66
2022/07/07 09:04:10;;;;;;;2.70;1.80;;;25.60;93.60;27.30;97022.00;;;;5057392;28;20242;-66
2022/07/07 09:07:01;;;;;;;3.43;2.10;;;25.50;92.80;27.00;97028.00;;;;5067616;28;20211;-65
2022/07/07 09:09:52;;;;;;;2.90;2.20;;;25.30;92.00;26.90;97027.00;;;;5062521;28;20206;-65
2022/07/07 09:12:41;;;;;;;3.80;2.13;;;25.20;92.10;26.10;97033.00;;;;5065005;28;20202;-66
2022/07/07 09:15:40;;;;;;;3.60;2.37;;;25.10;91.20;26.50;97027.00;;;;5065572;28;20240;-66
2022/07/07 09:18:33;;;;;;;2.50;2.27;;;24.90;91.70;26.60;97028.00;;;;5059721;28;20208;-66
2022/07/07 09:21:30;;;;;;;2.20;2.00;;;24.80;91.80;26.80;97031.00;;;;5060390;28;20232;-66
2022/07/07 09:24:20;;;;;;;3.33;2.17;;;24.80;93.20;26.80;97033.00;;;;5062586;28;20228;-66
2022/07/07 09:27:11;;;;;;;3.97;2.70;;;24.80;94.40;26.70;97038.00;;;;5059515;28;20216;-66
2022/07/07 09:30:00;;;;;;;2.00;1.80;;;24.80;96.10;26.50;97046.00;;;;5063133;28;20206;-66
2022/07/07 09:32:49;;;;;;;3.40;2.63;;;24.70;96.30;26.30;97039.00;;;;5053865;28;20811;-66
2022/07/07 09:38:47;;;;;;;2.80;2.50;;;24.50;97.00;25.50;97047.00;;;;5058709;28;20212;-66
2022/07/07 09:41:36;;;;;;;3.97;2.47;;;24.30;98.60;24.80;97042.00;;;;5061261;28;20212;-66
2022/07/07 09:44:26;;;;;;;2.33;2.13;;;23.90;99.50;24.60;97041.00;;;;5060742;28;20247;-66
2022/07/07 09:47:15;;;;;;;3.33;2.40;;;23.60;99.90;24.90;97033.00;;;;5063043;28;20199;-66
2022/07/07 09:50:07;;;;;;;2.93;2.60;;;23.40;99.90;24.70;97035.00;;;;5061562;28;20583;-66
2022/07/07 09:52:58;;;;;;;3.40;2.50;;;23.30;99.90;24.70;97043.00;;;;5057694;28;20197;-66
2022/07/07 09:56:01;;;;;;;4.93;2.50;;;23.20;99.90;24.70;97044.00;;;;5062169;28;20239;-66
2022/07/07 09:58:52;;;;;;;3.07;2.23;;;23.00;99.90;24.50;97031.00;;;;5063554;28;20216;-66
2022/07/07 10:01:43;;;;;;;3.23;2.40;;;23.00;99.90;24.30;97032.00;;;;5057734;28;20201;-66
2022/07/07 10:04:33;;;;;;;3.03;2.13;;;22.80;99.90;24.20;97038.00;;;;5056086;28;20219;-66
2022/07/07 10:07:24;;;;;;;3.20;2.90;;;22.70;99.90;23.80;97040.00;;;;5052601;28;20205;-66
2022/07/07 10:10:20;;;;;;;4.83;2.87;;;22.60;99.90;23.10;97034.00;;;;5061866;28;20211;-66
2022/07/07 10:13:09;;;;;;;3.50;2.30;;;22.30;99.90;22.40;97022.00;;;;5063342;28;20204;-68
2022/07/07 10:15:58;;;;;;;5.03;2.80;;;22.00;99.90;21.60;97015.00;;;;5061567;28;20699;-67
2022/07/07 10:18:47;;;;;;;4.43;3.40;;;21.60;99.90;21.30;97015.00;;;;5055835;28;20283;-65
2022/07/07 10:21:36;;;;;;;3.93;3.23;;;21.10;99.90;20.70;97017.00;;;;5065191;28;20283;-67
2022/07/07 10:24:31;;;;;;;4.27;3.80;;;20.70;99.90;20.60;97018.00;;;;5057707;28;20235;-66
2022/07/07 10:27:23;;;;;;;4.50;3.90;;;20.30;99.90;20.70;97004.00;;;;5058165;28;20203;-67
2022/07/07 10:30:30;;;;;;;4.30;3.90;;;20.10;99.90;20.80;97020.00;;;;5060018;28;20207;-67
2022/07/07 10:33:19;;;;;;;5.90;4.03;;;20.00;99.90;20.40;97006.00;;;;5056239;28;20240;-64
2022/07/07 10:36:08;;;;;;;4.47;3.77;;;19.80;99.90;20.50;97009.00;;;;5063301;28;20213;-64
2022/07/07 10:38:59;;;;;;;5.13;3.77;;;19.80;99.90;20.30;97020.00;;;;5062785;28;20627;-65
2022/07/07 10:41:58;;;;;;;4.43;4.00;;;19.60;99.90;20.30;97024.00;;;;5056250;28;20216;-66
2022/07/07 10:44:51;;;;;;;7.70;5.10;;;19.50;99.90;20.20;97023.00;;;;5058778;28;20251;-67
2022/07/07 10:47:40;;;;;;;5.47;4.97;;;19.50;99.90;20.30;97020.00;;;;5055242;28;20656;-64
2022/07/07 10:50:31;;;;;;;5.07;4.63;;;19.40;99.90;20.20;97014.00;;;;5057439;28;20196;-68
2022/07/07 10:53:31;;;;;;;5.90;5.30;;;19.40;99.90;20.50;97014.00;;;;5055959;28;20224;-68
2022/07/07 10:56:20;;;;;;;7.83;6.00;;;19.50;99.90;20.90;96997.00;;;;5058013;28;20269;-63
2022/07/07 10:59:09;;;;;;;4.93;4.53;;;19.60;99.90;21.30;96993.00;;;;5059918;28;20357;-65
2022/07/07 11:02:13;;;;;;;4.53;4.13;;;19.80;99.90;21.80;96969.00;;;;5061634;28;20213;-64
2022/07/07 11:05:25;;;;;;;5.43;4.97;;;20.10;99.90;21.70;97002.00;;;;5062083;28;20220;-68
2022/07/07 11:08:17;;;;;;;6.67;4.30;;;20.30;99.90;21.20;97004.00;;;;5059959;28;20543;-64
2022/07/07 11:11:10;;;;;;;6.00;4.83;;;20.30;99.90;21.20;97004.00;;;;5059619;28;20230;-65
2022/07/07 11:14:09;;;;;;;5.53;4.70;;;20.20;99.90;21.30;97008.00;;;;5056873;28;20704;-64
2022/07/07 11:16:58;;;;;;;4.53;4.00;;;20.20;99.90;21.40;97015.00;;;;5056012;28;20893;-65
2022/07/07 11:19:51;;;;;;;5.00;4.50;;;20.10;99.90;21.30;97018.00;;;;5058810;28;20200;-68
2022/07/07 11:22:44;;;;;;;4.67;4.27;;;20.10;99.90;20.90;97021.00;;;;5058920;28;20738;-66
2022/07/07 11:25:34;;;;;;;5.63;5.13;;;20.00;99.90;20.80;97021.00;;;;5063071;28;20235;-65
2022/07/07 11:28:26;;;;;;;4.10;3.70;;;19.80;99.90;21.40;97036.00;;;;5063194;28;20204;-65
2022/07/07 11:31:16;;;;;;;4.87;4.30;;;19.80;99.90;21.60;97046.00;;;;5064352;28;20663;-64
2022/07/07 11:34:05;;;;;;;5.00;4.60;;;19.90;99.90;21.00;97040.00;;;;5065107;28;20215;-64
2022/07/07 11:36:55;;;;;;;5.50;4.90;;;19.90;99.90;21.50;97053.00;;;;5059418;28;20197;-65
2022/07/07 11:39:44;;;;;;;6.00;5.47;;;19.70;99.90;21.70;97071.00;;;;5063428;28;20202;-64
2022/07/07 11:42:36;;;;;;;3.57;3.27;;;19.90;99.90;20.70;97058.00;;;;5062665;28;20204;-67
2022/07/07 11:45:27;;;;;;;4.57;4.17;;;19.80;99.90;21.20;97078.00;;;;5062283;28;20274;-66
2022/07/07 11:48:17;;;;;;;5.63;4.17;;;19.80;99.90;21.10;97069.00;;;;5059004;28;20218;-64
2022/07/07 11:51:07;;;;;;;6.80;3.97;;;19.80;99.90;21.30;97083.00;;;;5056944;28;20430;-65
2022/07/07 11:54:00;;;;;;;4.20;3.80;;;19.70;99.90;21.40;97080.00;;;;5060612;28;20228;-65
2022/07/07 11:56:49;;;;;;;5.67;4.00;;;19.70;99.90;21.20;97080.00;;;;5060165;28;20337;-65
2022/07/07 11:59:37;;;;;;;4.23;3.87;;;19.70;99.90;21.40;97082.00;;;;5061952;28;20200;-65
2022/07/07 12:02:26;;;;;;;5.00;4.23;;;19.60;99.90;21.30;97077.00;;;;5062061;28;20231;-65
2022/07/07 12:05:18;;;;;;;5.57;4.07;;;19.60;99.90;21.50;97070.00;;;;5057017;28;20822;-65
2022/07/07 12:08:09;;;;;;;4.50;4.10;;;19.60;99.90;21.50;97068.00;;;;5066158;28;20200;-65
2022/07/07 12:11:00;;;;;;;4.63;3.60;;;19.70;99.90;21.70;97070.00;;;;5063105;28;20231;-65
2022/07/07 12:13:51;;;;;;;5.57;4.00;;;19.70;99.90;21.60;97064.00;;;;5069228;28;20752;-65
2022/07/07 12:16:45;;;;;;;3.80;3.50;;;19.80;99.90;21.90;97078.00;;;;5059063;28;20595;-65
2022/07/07 12:19:46;;;;;;;6.00;4.53;;;19.90;99.90;21.60;97078.00;;;;5057708;28;20624;-65
2022/07/07 12:22:39;;;;;;;5.60;3.70;;;19.90;99.90;21.60;97086.00;;;;5060508;28;20276;-65
2022/07/07 12:25:29;;;;;;;4.40;3.97;;;19.90;99.90;21.70;97090.00;;;;5064316;28;20232;-65
2022/07/07 12:28:36;;;;;;;2.67;2.33;;;19.90;99.90;21.40;97104.00;;;;5066625;28;20218;-65
2022/07/07 12:31:26;;;;;;;4.03;3.17;;;19.80;99.90;21.50;97100.00;;;;5059032;28;20382;-65
2022/07/07 12:34:22;;;;;;;5.80;3.80;;;19.80;99.90;21.50;97098.00;;;;5063379;28;20223;-65
2022/07/07 12:37:11;;;;;;;3.53;3.23;;;19.80;99.90;21.50;97096.00;;;;5063747;28;20204;-64
2022/07/07 12:40:09;;;;;;;3.83;3.47;;;19.80;99.90;21.50;97104.00;;;;5052472;28;20210;-64
2022/07/07 12:43:05;;;;;;;4.20;2.70;;;19.70;99.90;21.30;97103.00;;;;5059937;28;20680;-65